Weather at Detour Lake Airport

Public forecast

Using degrees Celsius for public forecast. Weather courtesy of forecast.io.

Closest aviation weather report (METAR) to Detour Lake Airport

Closest report is Matagami Airport, 77.0 nm (142.7 km) ESE.

2024/03/01 17:00 (retrieved 41 minutes ago)

CYNM 011700Z AUTO 22009G15KT 180V270 9SM CLR M13/M20 A3022 RMK SLP268

Closest aviation forecast (TAF) to Detour Lake Airport

Closest forecast is Moosonee Airport, 81.7 nm (151.4 km) NNW.

2024/03/01 12:42 (retrieved 5 hours ago)

TAF CYMO 011140Z 0112/0124 22008KT P6SM SKC BECMG 0118/0120 14008KT FM012000 14008KT P6SM BKN100 FM012300 14008KT P6SM BKN030 OVC100 RMK FCST BASED ON AUTO OBS NXT FCST BY 011800Z